createdAt,value
2018-03-28T00:00:35.000Z,24
2018-03-28T00:01:35.000Z,24
2018-03-28T00:02:35.000Z,24
2018-03-28T00:03:35.000Z,24
2018-03-28T00:04:35.000Z,24
2018-03-28T00:05:35.000Z,24
2018-03-28T00:06:35.000Z,24
2018-03-28T00:08:35.000Z,24
2018-03-28T00:09:35.000Z,24
2018-03-28T00:10:35.000Z,24
2018-03-28T00:11:35.000Z,24
2018-03-28T00:12:35.000Z,25
2018-03-28T00:13:35.000Z,24
2018-03-28T00:14:35.000Z,24
2018-03-28T00:15:35.000Z,24
2018-03-28T00:17:35.000Z,24
2018-03-28T00:18:35.000Z,24
2018-03-28T00:20:35.000Z,24
2018-03-28T00:21:35.000Z,25
2018-03-28T00:22:35.000Z,24
2018-03-28T00:23:35.000Z,25
2018-03-28T00:24:35.000Z,24
2018-03-28T00:25:35.000Z,25
2018-03-28T00:26:35.000Z,24
2018-03-28T00:27:35.000Z,25
2018-03-28T00:28:35.000Z,25
2018-03-28T00:29:35.000Z,24
2018-03-28T00:30:35.000Z,25
2018-03-28T00:31:35.000Z,24
2018-03-28T00:32:35.000Z,25
2018-03-28T00:33:35.000Z,24
2018-03-28T00:34:35.000Z,25
2018-03-28T00:35:35.000Z,25
2018-03-28T00:36:35.000Z,25
2018-03-28T00:37:35.000Z,25
2018-03-28T00:38:35.000Z,24
2018-03-28T00:39:35.000Z,25
2018-03-28T00:40:35.000Z,25
2018-03-28T00:41:35.000Z,24
2018-03-28T00:42:35.000Z,24
2018-03-28T00:43:35.000Z,24
2018-03-28T00:44:35.000Z,24
2018-03-28T00:45:35.000Z,24
2018-03-28T00:46:35.000Z,24
2018-03-28T00:47:35.000Z,24
2018-03-28T00:48:35.000Z,24
2018-03-28T00:49:35.000Z,25
2018-03-28T00:50:35.000Z,25
2018-03-28T00:51:35.000Z,24
2018-03-28T00:53:35.000Z,24
2018-03-28T00:54:35.000Z,24
2018-03-28T00:55:35.000Z,25
2018-03-28T00:56:35.000Z,25
2018-03-28T00:57:35.000Z,25
2018-03-28T00:59:35.000Z,24
2018-03-28T01:00:35.000Z,25
2018-03-28T01:02:35.000Z,24
2018-03-28T01:03:35.000Z,25
2018-03-28T01:04:35.000Z,25
2018-03-28T01:05:35.000Z,25
2018-03-28T01:06:35.000Z,25
2018-03-28T01:07:35.000Z,25
2018-03-28T01:08:35.000Z,25
2018-03-28T01:09:35.000Z,25
2018-03-28T01:10:35.000Z,25
2018-03-28T01:11:35.000Z,25
2018-03-28T01:12:35.000Z,25
2018-03-28T01:13:35.000Z,25
2018-03-28T01:14:35.000Z,24
2018-03-28T01:15:35.000Z,25
2018-03-28T01:16:35.000Z,24
2018-03-28T01:17:35.000Z,24
2018-03-28T01:18:35.000Z,24
2018-03-28T01:19:35.000Z,24
2018-03-28T01:20:35.000Z,25
2018-03-28T01:21:35.000Z,24
2018-03-28T01:22:35.000Z,24
2018-03-28T01:24:35.000Z,24
2018-03-28T01:25:35.000Z,25
2018-03-28T01:26:35.000Z,25
2018-03-28T01:27:35.000Z,24
2018-03-28T01:28:35.000Z,25
2018-03-28T01:29:35.000Z,25
2018-03-28T01:30:35.000Z,24
2018-03-28T01:31:35.000Z,25
2018-03-28T01:32:35.000Z,24
2018-03-28T01:33:35.000Z,25
2018-03-28T01:34:35.000Z,24
2018-03-28T01:35:35.000Z,25
2018-03-28T01:36:35.000Z,24
2018-03-28T01:37:35.000Z,25
2018-03-28T01:38:35.000Z,24
2018-03-28T01:39:35.000Z,25
2018-03-28T01:40:35.000Z,24
2018-03-28T01:41:35.000Z,25
2018-03-28T01:42:35.000Z,24
2018-03-28T01:44:35.000Z,24
2018-03-28T01:46:35.000Z,24
2018-03-28T01:48:35.000Z,25
2018-03-28T01:49:35.000Z,25
2018-03-28T01:50:35.000Z,25
2018-03-28T01:51:35.000Z,25
2018-03-28T01:52:35.000Z,25
2018-03-28T01:53:35.000Z,25
2018-03-28T01:54:35.000Z,25
2018-03-28T01:55:35.000Z,25
2018-03-28T01:56:35.000Z,25
2018-03-28T01:57:35.000Z,25
2018-03-28T01:58:35.000Z,25
2018-03-28T01:59:35.000Z,25
2018-03-28T02:00:35.000Z,25
2018-03-28T02:01:35.000Z,25
2018-03-28T02:03:35.000Z,25
2018-03-28T02:04:35.000Z,25
2018-03-28T02:05:35.000Z,25
2018-03-28T02:06:35.000Z,25
2018-03-28T02:08:35.000Z,25
2018-03-28T02:09:35.000Z,25
2018-03-28T02:10:35.000Z,25
2018-03-28T02:11:35.000Z,25
2018-03-28T02:13:35.000Z,25
2018-03-28T02:14:35.000Z,25
2018-03-28T02:15:35.000Z,25
2018-03-28T02:16:35.000Z,25
2018-03-28T02:17:35.000Z,25
2018-03-28T02:18:35.000Z,25
2018-03-28T02:19:35.000Z,25
2018-03-28T02:20:35.000Z,25
2018-03-28T02:21:35.000Z,25
2018-03-28T02:22:35.000Z,25
2018-03-28T02:23:35.000Z,25
2018-03-28T02:24:35.000Z,25
2018-03-28T02:25:35.000Z,25
2018-03-28T02:26:35.000Z,25
2018-03-28T02:27:35.000Z,25
2018-03-28T02:28:35.000Z,25
2018-03-28T02:29:35.000Z,25
2018-03-28T02:30:35.000Z,25
2018-03-28T02:31:35.000Z,25
2018-03-28T02:32:35.000Z,25
2018-03-28T02:33:35.000Z,25
2018-03-28T02:34:35.000Z,25
2018-03-28T02:35:35.000Z,25
2018-03-28T02:36:35.000Z,25
2018-03-28T02:37:35.000Z,25
2018-03-28T02:39:35.000Z,24
2018-03-28T02:40:35.000Z,25
2018-03-28T02:41:35.000Z,24
2018-03-28T02:42:35.000Z,25
2018-03-28T02:43:35.000Z,25
2018-03-28T02:44:35.000Z,25
2018-03-28T02:45:35.000Z,25
2018-03-28T02:46:35.000Z,25
2018-03-28T02:47:35.000Z,25
2018-03-28T02:48:35.000Z,25
2018-03-28T02:49:35.000Z,25
2018-03-28T02:50:35.000Z,24
2018-03-28T02:51:35.000Z,25
2018-03-28T02:52:35.000Z,24
2018-03-28T02:53:35.000Z,25
2018-03-28T02:54:35.000Z,24
2018-03-28T02:55:35.000Z,25
2018-03-28T02:56:35.000Z,25
2018-03-28T02:57:35.000Z,25
2018-03-28T02:58:35.000Z,25
2018-03-28T02:59:35.000Z,25
2018-03-28T03:00:35.000Z,25
2018-03-28T03:01:35.000Z,24
2018-03-28T03:02:35.000Z,24
2018-03-28T03:03:35.000Z,25
2018-03-28T03:05:35.000Z,24
2018-03-28T03:06:35.000Z,25
2018-03-28T03:07:35.000Z,24
2018-03-28T03:08:35.000Z,25
2018-03-28T03:09:35.000Z,25
2018-03-28T03:10:35.000Z,25
2018-03-28T03:11:35.000Z,24
2018-03-28T03:12:35.000Z,25
2018-03-28T03:13:35.000Z,24
2018-03-28T03:15:35.000Z,24
2018-03-28T03:16:35.000Z,25
2018-03-28T03:17:35.000Z,25
2018-03-28T03:18:35.000Z,25
2018-03-28T03:19:35.000Z,25
2018-03-28T03:20:35.000Z,25
2018-03-28T03:21:35.000Z,25
2018-03-28T03:22:35.000Z,25
2018-03-28T03:23:35.000Z,25
2018-03-28T03:24:35.000Z,25
2018-03-28T03:25:35.000Z,25
2018-03-28T03:26:35.000Z,25
2018-03-28T03:28:35.000Z,25
2018-03-28T03:30:35.000Z,25
2018-03-28T03:31:35.000Z,25
2018-03-28T03:32:35.000Z,25
2018-03-28T03:33:35.000Z,25
2018-03-28T03:34:35.000Z,25
2018-03-28T03:35:35.000Z,25
2018-03-28T03:36:35.000Z,25
2018-03-28T03:37:35.000Z,25
2018-03-28T03:38:35.000Z,25
2018-03-28T03:39:35.000Z,25
2018-03-28T03:40:35.000Z,25
2018-03-28T03:42:35.000Z,25
2018-03-28T03:43:35.000Z,25
2018-03-28T03:44:35.000Z,25
2018-03-28T03:45:35.000Z,25
2018-03-28T03:46:35.000Z,25
2018-03-28T03:47:35.000Z,25
2018-03-28T03:48:35.000Z,25
2018-03-28T03:49:35.000Z,25
2018-03-28T03:50:35.000Z,25
2018-03-28T03:51:35.000Z,25
2018-03-28T03:52:35.000Z,25
2018-03-28T03:53:35.000Z,25
2018-03-28T03:54:35.000Z,25
2018-03-28T03:55:35.000Z,25
2018-03-28T03:56:35.000Z,25
2018-03-28T03:57:35.000Z,25
2018-03-28T03:58:35.000Z,25
2018-03-28T03:59:35.000Z,25
2018-03-28T04:00:35.000Z,25
2018-03-28T04:01:35.000Z,25
2018-03-28T04:02:35.000Z,25
2018-03-28T04:04:35.000Z,25
2018-03-28T04:05:35.000Z,25
2018-03-28T04:06:35.000Z,25
2018-03-28T04:07:35.000Z,25
2018-03-28T04:08:35.000Z,25
2018-03-28T04:09:35.000Z,25
2018-03-28T04:10:35.000Z,25
2018-03-28T04:11:35.000Z,25
2018-03-28T04:12:35.000Z,25
2018-03-28T04:13:35.000Z,25
2018-03-28T04:14:35.000Z,25
2018-03-28T04:16:35.000Z,25
2018-03-28T04:17:35.000Z,25
2018-03-28T04:18:35.000Z,25
2018-03-28T04:19:35.000Z,25
2018-03-28T04:20:35.000Z,25
2018-03-28T04:21:35.000Z,25
2018-03-28T04:22:35.000Z,25
2018-03-28T04:23:35.000Z,25
2018-03-28T04:24:35.000Z,25
2018-03-28T04:25:35.000Z,25
2018-03-28T04:26:35.000Z,25
2018-03-28T04:27:35.000Z,25
2018-03-28T04:28:35.000Z,25
2018-03-28T04:29:35.000Z,25
2018-03-28T04:30:35.000Z,25
2018-03-28T04:31:35.000Z,25
2018-03-28T04:32:35.000Z,25
2018-03-28T04:33:35.000Z,25
2018-03-28T04:35:35.000Z,25
2018-03-28T04:36:35.000Z,25
2018-03-28T04:38:35.000Z,25
2018-03-28T04:39:35.000Z,25
2018-03-28T04:40:35.000Z,25
2018-03-28T04:41:35.000Z,25
2018-03-28T04:42:35.000Z,25
2018-03-28T04:43:35.000Z,25
2018-03-28T04:44:35.000Z,25
2018-03-28T04:45:35.000Z,25
2018-03-28T04:46:35.000Z,25
2018-03-28T04:47:35.000Z,25
2018-03-28T04:48:35.000Z,25
2018-03-28T04:49:35.000Z,25
2018-03-28T04:51:35.000Z,25
2018-03-28T04:52:35.000Z,25
2018-03-28T04:53:35.000Z,25
2018-03-28T04:54:35.000Z,25
2018-03-28T04:55:35.000Z,25
2018-03-28T04:56:35.000Z,25
2018-03-28T04:57:35.000Z,25
2018-03-28T04:58:35.000Z,25
2018-03-28T04:59:35.000Z,25
2018-03-28T05:00:35.000Z,25
2018-03-28T05:01:35.000Z,25
2018-03-28T05:02:35.000Z,25
2018-03-28T05:03:35.000Z,25
2018-03-28T05:04:35.000Z,25
2018-03-28T05:05:35.000Z,25
2018-03-28T05:07:35.000Z,25
2018-03-28T05:08:35.000Z,25
2018-03-28T05:09:35.000Z,25
2018-03-28T05:10:35.000Z,25
2018-03-28T05:11:35.000Z,25
2018-03-28T05:12:35.000Z,25
2018-03-28T05:13:35.000Z,25
2018-03-28T05:14:35.000Z,25
2018-03-28T05:15:35.000Z,25
2018-03-28T05:16:35.000Z,25
2018-03-28T05:17:35.000Z,25
2018-03-28T05:18:35.000Z,25
2018-03-28T05:19:35.000Z,25
2018-03-28T05:20:35.000Z,25
2018-03-28T05:22:35.000Z,25
2018-03-28T05:23:35.000Z,25
2018-03-28T05:24:35.000Z,25
2018-03-28T05:25:35.000Z,25
2018-03-28T05:26:35.000Z,25
2018-03-28T05:27:35.000Z,25
2018-03-28T05:28:35.000Z,25
2018-03-28T05:29:35.000Z,25
2018-03-28T05:30:35.000Z,25
2018-03-28T05:31:35.000Z,25
2018-03-28T05:32:35.000Z,25
2018-03-28T05:34:35.000Z,25
2018-03-28T05:35:35.000Z,25
2018-03-28T05:36:35.000Z,25
2018-03-28T05:37:35.000Z,25
2018-03-28T05:38:35.000Z,25
2018-03-28T05:39:35.000Z,25
2018-03-28T05:40:35.000Z,25
2018-03-28T05:41:35.000Z,25
2018-03-28T05:42:35.000Z,25
2018-03-28T05:43:35.000Z,25
2018-03-28T05:44:35.000Z,25
2018-03-28T05:45:35.000Z,25
2018-03-28T05:46:35.000Z,25
2018-03-28T05:48:35.000Z,25
2018-03-28T05:49:35.000Z,25
2018-03-28T05:50:35.000Z,25
2018-03-28T05:51:35.000Z,25
2018-03-28T05:52:35.000Z,25
2018-03-28T05:54:35.000Z,25
2018-03-28T05:55:35.000Z,25
2018-03-28T05:56:35.000Z,25
2018-03-28T05:57:35.000Z,25
2018-03-28T05:58:35.000Z,25
2018-03-28T06:00:35.000Z,25
2018-03-28T06:01:35.000Z,25
2018-03-28T06:02:35.000Z,25
2018-03-28T06:03:35.000Z,25
2018-03-28T06:04:35.000Z,25
2018-03-28T06:05:35.000Z,25
2018-03-28T06:06:35.000Z,25
2018-03-28T06:07:35.000Z,25
2018-03-28T06:09:35.000Z,25
2018-03-28T06:10:35.000Z,25
2018-03-28T06:11:35.000Z,25
2018-03-28T06:12:35.000Z,25
2018-03-28T06:13:35.000Z,25
2018-03-28T06:14:35.000Z,25
2018-03-28T06:15:35.000Z,25
2018-03-28T06:16:35.000Z,25
2018-03-28T06:17:35.000Z,25
2018-03-28T06:19:35.000Z,25
2018-03-28T06:20:35.000Z,25
2018-03-28T06:22:35.000Z,25
2018-03-28T06:23:35.000Z,25
2018-03-28T06:24:35.000Z,25
2018-03-28T06:25:35.000Z,25
2018-03-28T06:27:35.000Z,25
2018-03-28T06:28:35.000Z,25
2018-03-28T06:29:35.000Z,25
2018-03-28T06:31:35.000Z,25
2018-03-28T06:32:35.000Z,25
2018-03-28T06:33:35.000Z,25
2018-03-28T06:34:35.000Z,25
2018-03-28T06:35:35.000Z,25
2018-03-28T06:36:35.000Z,25
2018-03-28T06:37:35.000Z,25
2018-03-28T06:39:35.000Z,25
2018-03-28T06:40:35.000Z,25
2018-03-28T06:41:35.000Z,25
2018-03-28T06:42:35.000Z,25
2018-03-28T06:43:35.000Z,25
2018-03-28T06:44:35.000Z,25
2018-03-28T06:45:35.000Z,25
2018-03-28T06:47:35.000Z,25
2018-03-28T06:48:35.000Z,26
2018-03-28T06:49:35.000Z,26
2018-03-28T06:50:35.000Z,26
2018-03-28T06:51:35.000Z,26
2018-03-28T06:52:35.000Z,26
2018-03-28T06:54:35.000Z,26
2018-03-28T06:55:35.000Z,26
2018-03-28T06:56:35.000Z,26
2018-03-28T06:57:35.000Z,26
2018-03-28T06:58:35.000Z,26
2018-03-28T06:59:35.000Z,26
2018-03-28T07:00:35.000Z,26
2018-03-28T07:01:35.000Z,26
2018-03-28T07:02:35.000Z,26
2018-03-28T07:04:35.000Z,26
2018-03-28T07:05:35.000Z,26
2018-03-28T07:06:35.000Z,26
2018-03-28T07:07:35.000Z,26
2018-03-28T07:08:35.000Z,26
2018-03-28T07:09:35.000Z,26
2018-03-28T07:10:35.000Z,26
2018-03-28T07:11:35.000Z,26
2018-03-28T07:13:35.000Z,26
2018-03-28T07:14:35.000Z,26
2018-03-28T07:15:35.000Z,26
2018-03-28T07:16:35.000Z,26
2018-03-28T07:17:35.000Z,26
2018-03-28T07:19:35.000Z,26
2018-03-28T07:20:35.000Z,26
2018-03-28T07:22:35.000Z,26
2018-03-28T07:23:35.000Z,26
2018-03-28T07:24:35.000Z,26
2018-03-28T07:25:35.000Z,26
2018-03-28T07:26:35.000Z,26
2018-03-28T07:27:35.000Z,26
2018-03-28T07:28:35.000Z,26
2018-03-28T07:29:35.000Z,26
2018-03-28T07:30:35.000Z,26
2018-03-28T07:31:35.000Z,26
2018-03-28T07:32:35.000Z,26
2018-03-28T07:33:35.000Z,26
2018-03-28T07:34:35.000Z,26
2018-03-28T07:35:35.000Z,26
2018-03-28T07:37:35.000Z,26
2018-03-28T07:38:35.000Z,26
2018-03-28T07:39:35.000Z,26
2018-03-28T07:40:35.000Z,26
2018-03-28T07:41:35.000Z,26
2018-03-28T07:42:35.000Z,26
2018-03-28T07:43:35.000Z,26
2018-03-28T07:44:35.000Z,26
2018-03-28T07:46:35.000Z,26
2018-03-28T07:47:35.000Z,26
2018-03-28T07:48:35.000Z,26
2018-03-28T07:49:35.000Z,26
2018-03-28T07:50:35.000Z,26
2018-03-28T07:51:35.000Z,26
2018-03-28T07:52:35.000Z,26
2018-03-28T07:53:35.000Z,26
2018-03-28T07:54:35.000Z,26
2018-03-28T07:55:35.000Z,26
2018-03-28T07:56:35.000Z,26
2018-03-28T07:57:35.000Z,26
2018-03-28T07:58:35.000Z,26
2018-03-28T07:59:35.000Z,26
2018-03-28T08:00:35.000Z,26
2018-03-28T08:01:35.000Z,26
2018-03-28T08:02:35.000Z,26
2018-03-28T08:03:35.000Z,26
2018-03-28T08:04:35.000Z,26
2018-03-28T08:05:35.000Z,26
2018-03-28T08:06:35.000Z,25
2018-03-28T08:07:35.000Z,25
2018-03-28T08:08:35.000Z,25
2018-03-28T08:09:35.000Z,25
2018-03-28T08:10:35.000Z,25
2018-03-28T08:11:35.000Z,25
2018-03-28T08:12:36.000Z,25
2018-03-28T08:13:36.000Z,25
2018-03-28T08:14:36.000Z,25
2018-03-28T08:15:36.000Z,25
2018-03-28T08:16:36.000Z,25
2018-03-28T08:17:36.000Z,25
2018-03-28T08:18:36.000Z,25
2018-03-28T08:20:36.000Z,25
2018-03-28T08:21:36.000Z,25
2018-03-28T08:22:36.000Z,25
2018-03-28T08:24:36.000Z,25
2018-03-28T08:25:36.000Z,25
2018-03-28T08:26:36.000Z,25
2018-03-28T08:27:36.000Z,25
2018-03-28T08:28:36.000Z,25
2018-03-28T08:29:36.000Z,25
2018-03-28T08:30:36.000Z,25
2018-03-28T08:31:36.000Z,25
2018-03-28T08:33:36.000Z,25
2018-03-28T08:34:36.000Z,25
2018-03-28T08:35:36.000Z,25
2018-03-28T08:36:36.000Z,25
2018-03-28T08:37:36.000Z,25
2018-03-28T08:38:36.000Z,25
2018-03-28T08:39:36.000Z,25
2018-03-28T08:40:36.000Z,25
2018-03-28T08:41:36.000Z,25
2018-03-28T08:42:36.000Z,25
2018-03-28T08:43:36.000Z,25
2018-03-28T08:44:36.000Z,25
2018-03-28T08:46:36.000Z,25
2018-03-28T08:47:36.000Z,25
2018-03-28T08:49:36.000Z,25
2018-03-28T08:50:36.000Z,26
2018-03-28T08:51:36.000Z,25
2018-03-28T08:52:36.000Z,26
2018-03-28T08:53:36.000Z,25
2018-03-28T08:54:36.000Z,26
2018-03-28T08:55:36.000Z,25
2018-03-28T08:56:36.000Z,26
2018-03-28T08:58:36.000Z,25
2018-03-28T08:59:36.000Z,26
2018-03-28T09:00:36.000Z,26
2018-03-28T09:01:36.000Z,26
2018-03-28T09:02:36.000Z,26
2018-03-28T09:03:36.000Z,26
2018-03-28T09:04:36.000Z,26
2018-03-28T09:05:36.000Z,26
2018-03-28T09:06:36.000Z,26
2018-03-28T09:07:36.000Z,26
2018-03-28T09:09:36.000Z,25
2018-03-28T09:10:36.000Z,25
2018-03-28T09:11:36.000Z,25
2018-03-28T09:12:36.000Z,25
2018-03-28T09:13:36.000Z,25
2018-03-28T09:14:36.000Z,25
2018-03-28T09:16:35.000Z,25
2018-03-28T09:17:35.000Z,25
2018-03-28T09:18:35.000Z,25
2018-03-28T09:19:35.000Z,25
2018-03-28T09:20:35.000Z,25
2018-03-28T09:21:35.000Z,25
2018-03-28T09:23:35.000Z,25
2018-03-28T09:24:35.000Z,25
2018-03-28T09:25:35.000Z,25
2018-03-28T09:26:35.000Z,25
2018-03-28T09:27:35.000Z,25
2018-03-28T09:28:35.000Z,25
2018-03-28T09:29:35.000Z,25
2018-03-28T09:30:35.000Z,25
2018-03-28T09:31:35.000Z,25
2018-03-28T09:33:35.000Z,25
2018-03-28T09:34:35.000Z,25
2018-03-28T09:36:35.000Z,25
2018-03-28T09:37:35.000Z,25
2018-03-28T09:38:35.000Z,25
2018-03-28T09:39:35.000Z,25
2018-03-28T09:40:35.000Z,25
2018-03-28T09:41:35.000Z,25
2018-03-28T09:42:35.000Z,25
2018-03-28T09:43:35.000Z,25
2018-03-28T09:44:35.000Z,25
2018-03-28T09:45:35.000Z,25
2018-03-28T09:47:35.000Z,25
2018-03-28T09:48:35.000Z,25
2018-03-28T09:49:35.000Z,25
2018-03-28T09:50:35.000Z,25
2018-03-28T09:51:35.000Z,25
2018-03-28T09:52:35.000Z,25
2018-03-28T09:53:35.000Z,25
2018-03-28T09:57:21.000Z,25
2018-03-28T09:58:21.000Z,25
2018-03-28T09:59:21.000Z,25
2018-03-28T10:00:21.000Z,25
2018-03-28T10:01:21.000Z,25
2018-03-28T10:02:21.000Z,25
2018-03-28T10:03:21.000Z,25
2018-03-28T10:04:21.000Z,25
2018-03-28T10:05:21.000Z,25
2018-03-28T10:06:21.000Z,25
2018-03-28T10:07:21.000Z,25
2018-03-28T10:08:21.000Z,25
2018-03-28T10:09:21.000Z,25
2018-03-28T10:10:21.000Z,25
2018-03-28T10:11:21.000Z,25
2018-03-28T10:12:21.000Z,25
2018-03-28T10:13:21.000Z,25
2018-03-28T10:15:21.000Z,25
2018-03-28T10:17:21.000Z,25
2018-03-28T10:18:21.000Z,25
2018-03-28T10:19:21.000Z,25
2018-03-28T10:20:21.000Z,25
2018-03-28T10:21:21.000Z,25
2018-03-28T10:23:21.000Z,25
2018-03-28T10:24:21.000Z,25
2018-03-28T10:25:21.000Z,25
2018-03-28T10:26:21.000Z,26
2018-03-28T10:27:21.000Z,26
2018-03-28T10:28:21.000Z,25
2018-03-28T10:29:21.000Z,26
2018-03-28T10:30:21.000Z,26
2018-03-28T10:31:21.000Z,26
2018-03-28T10:32:21.000Z,26
2018-03-28T10:34:21.000Z,26
2018-03-28T10:35:21.000Z,26
2018-03-28T10:36:21.000Z,27
2018-03-28T10:37:21.000Z,27
2018-03-28T10:38:21.000Z,27
2018-03-28T10:40:21.000Z,27
2018-03-28T10:41:21.000Z,28
2018-03-28T10:43:21.000Z,28
2018-03-28T10:44:21.000Z,28
2018-03-28T10:45:21.000Z,28
2018-03-28T10:46:21.000Z,28
2018-03-28T10:47:21.000Z,28
2018-03-28T10:48:21.000Z,28
2018-03-28T10:49:21.000Z,28
2018-03-28T10:50:21.000Z,29
2018-03-28T10:51:21.000Z,29
2018-03-28T10:53:21.000Z,29
2018-03-28T10:54:21.000Z,29
2018-03-28T10:55:21.000Z,29
2018-03-28T10:56:21.000Z,29
2018-03-28T10:57:21.000Z,29
2018-03-28T10:58:21.000Z,29
2018-03-28T10:59:21.000Z,29
2018-03-28T11:00:21.000Z,29
2018-03-28T11:01:21.000Z,29
2018-03-28T11:02:21.000Z,29
2018-03-28T11:03:21.000Z,29
2018-03-28T11:04:21.000Z,30
2018-03-28T11:05:21.000Z,30
2018-03-28T11:06:21.000Z,29
2018-03-28T11:08:21.000Z,29
2018-03-28T11:10:21.000Z,29
2018-03-28T11:11:21.000Z,29
2018-03-28T11:12:21.000Z,29
2018-03-28T11:13:21.000Z,29
2018-03-28T11:14:21.000Z,29
2018-03-28T11:15:21.000Z,29
2018-03-28T11:16:21.000Z,29
2018-03-28T11:17:21.000Z,29
2018-03-28T11:18:21.000Z,29
2018-03-28T11:19:21.000Z,29
2018-03-28T11:20:21.000Z,30
2018-03-28T11:21:21.000Z,29
2018-03-28T11:22:22.000Z,30
2018-03-28T11:23:22.000Z,29
2018-03-28T11:24:22.000Z,30
2018-03-28T11:25:22.000Z,30
2018-03-28T11:26:22.000Z,30
2018-03-28T11:27:22.000Z,30
2018-03-28T11:28:22.000Z,30
2018-03-28T11:29:22.000Z,30
2018-03-28T11:30:22.000Z,30
2018-03-28T11:31:22.000Z,30
2018-03-28T11:32:22.000Z,30
2018-03-28T11:33:22.000Z,30
2018-03-28T11:34:22.000Z,30
2018-03-28T11:35:22.000Z,30
2018-03-28T11:36:22.000Z,30
2018-03-28T11:37:22.000Z,30
2018-03-28T11:38:22.000Z,30
2018-03-28T11:39:22.000Z,30
2018-03-28T11:40:22.000Z,30
2018-03-28T11:41:22.000Z,31
2018-03-28T11:42:22.000Z,30
2018-03-28T11:44:22.000Z,30
2018-03-28T11:45:22.000Z,31
2018-03-28T11:46:22.000Z,31
2018-03-28T11:47:22.000Z,31
2018-03-28T11:48:22.000Z,31
2018-03-28T11:50:22.000Z,31
2018-03-28T11:51:22.000Z,31
2018-03-28T11:52:22.000Z,32
2018-03-28T11:53:22.000Z,32
2018-03-28T11:54:22.000Z,32
2018-03-28T11:55:22.000Z,32
2018-03-28T11:56:22.000Z,32
2018-03-28T11:57:22.000Z,32
2018-03-28T11:58:22.000Z,32
2018-03-28T11:59:22.000Z,32
2018-03-28T12:00:22.000Z,32
2018-03-28T12:01:22.000Z,32
2018-03-28T12:02:22.000Z,32
2018-03-28T12:03:22.000Z,32
2018-03-28T12:04:22.000Z,32
2018-03-28T12:05:22.000Z,32
2018-03-28T12:06:22.000Z,32
2018-03-28T12:07:22.000Z,33
2018-03-28T12:08:22.000Z,33
2018-03-28T12:09:22.000Z,32
2018-03-28T12:10:22.000Z,33
2018-03-28T12:11:22.000Z,33
2018-03-28T12:12:22.000Z,33
2018-03-28T12:13:22.000Z,33
2018-03-28T12:14:22.000Z,33
2018-03-28T12:15:22.000Z,33
2018-03-28T12:16:22.000Z,33
2018-03-28T12:17:22.000Z,33
2018-03-28T12:18:22.000Z,33
2018-03-28T12:19:22.000Z,33
2018-03-28T12:20:22.000Z,33
2018-03-28T12:21:22.000Z,33
2018-03-28T12:22:22.000Z,33
2018-03-28T12:23:22.000Z,33
2018-03-28T12:25:22.000Z,33
2018-03-28T12:26:21.000Z,33
2018-03-28T12:28:21.000Z,33
2018-03-28T12:29:21.000Z,33
2018-03-28T12:30:21.000Z,33
2018-03-28T12:31:21.000Z,33
2018-03-28T12:32:21.000Z,33
2018-03-28T12:33:21.000Z,33
2018-03-28T12:34:21.000Z,33
2018-03-28T12:35:21.000Z,33
2018-03-28T12:36:21.000Z,33
2018-03-28T12:37:21.000Z,33
2018-03-28T12:38:21.000Z,33
2018-03-28T12:40:21.000Z,33
2018-03-28T12:41:21.000Z,33
2018-03-28T12:42:21.000Z,33
2018-03-28T12:43:21.000Z,33
2018-03-28T12:45:21.000Z,33
2018-03-28T12:46:21.000Z,33
2018-03-28T12:47:21.000Z,33
2018-03-28T12:48:21.000Z,33
2018-03-28T12:49:21.000Z,33
2018-03-28T12:51:21.000Z,33
2018-03-28T12:52:21.000Z,33
2018-03-28T12:53:21.000Z,33
2018-03-28T12:54:21.000Z,33
2018-03-28T12:56:21.000Z,33
2018-03-28T12:57:21.000Z,33
2018-03-28T12:58:21.000Z,33
2018-03-28T13:00:21.000Z,33
2018-03-28T13:01:21.000Z,33
2018-03-28T13:02:21.000Z,33
2018-03-28T13:03:21.000Z,33
2018-03-28T13:04:21.000Z,33
2018-03-28T13:05:21.000Z,33
2018-03-28T13:06:21.000Z,33
2018-03-28T13:07:21.000Z,33
2018-03-28T13:08:21.000Z,33
2018-03-28T13:09:21.000Z,33
2018-03-28T13:10:21.000Z,33
2018-03-28T13:12:21.000Z,32
2018-03-28T13:13:21.000Z,32
2018-03-28T13:14:21.000Z,32
2018-03-28T13:15:21.000Z,32
2018-03-28T13:16:21.000Z,32
2018-03-28T13:17:21.000Z,32
2018-03-28T13:18:21.000Z,32
2018-03-28T13:19:21.000Z,32
2018-03-28T13:20:21.000Z,32
2018-03-28T13:21:21.000Z,32
2018-03-28T13:22:21.000Z,32
2018-03-28T13:23:21.000Z,31
2018-03-28T13:24:21.000Z,31
2018-03-28T13:25:21.000Z,31
2018-03-28T13:26:21.000Z,31
2018-03-28T13:28:21.000Z,31
2018-03-28T13:29:21.000Z,31
2018-03-28T13:31:21.000Z,31
2018-03-28T13:32:21.000Z,31
2018-03-28T13:33:21.000Z,31
2018-03-28T13:35:21.000Z,31
2018-03-28T13:36:21.000Z,31
2018-03-28T13:37:21.000Z,31
2018-03-28T13:38:21.000Z,31
2018-03-28T13:39:21.000Z,31
2018-03-28T13:41:21.000Z,30
2018-03-28T13:42:21.000Z,31
2018-03-28T13:43:21.000Z,30
2018-03-28T13:44:21.000Z,31
2018-03-28T13:45:21.000Z,30
2018-03-28T13:46:21.000Z,31
2018-03-28T13:47:21.000Z,30
2018-03-28T13:48:21.000Z,30
2018-03-28T13:49:21.000Z,30
2018-03-28T13:50:21.000Z,31
2018-03-28T13:51:21.000Z,30
2018-03-28T13:52:21.000Z,30
2018-03-28T13:53:21.000Z,30
2018-03-28T13:54:21.000Z,30
2018-03-28T13:55:21.000Z,30
2018-03-28T13:56:21.000Z,30
2018-03-28T13:57:21.000Z,30
2018-03-28T13:58:21.000Z,30
2018-03-28T14:00:21.000Z,30
2018-03-28T14:01:21.000Z,30
2018-03-28T14:02:21.000Z,30
2018-03-28T14:04:21.000Z,30
2018-03-28T14:05:21.000Z,30
2018-03-28T14:07:21.000Z,30
2018-03-28T14:08:21.000Z,30
2018-03-28T14:09:21.000Z,30
2018-03-28T14:10:21.000Z,30
2018-03-28T14:11:21.000Z,30
2018-03-28T14:12:21.000Z,30
2018-03-28T14:13:21.000Z,30
2018-03-28T14:14:21.000Z,30
2018-03-28T14:15:21.000Z,30
2018-03-28T14:16:21.000Z,30
2018-03-28T14:17:21.000Z,30
2018-03-28T14:18:21.000Z,30
2018-03-28T14:19:21.000Z,30
2018-03-28T14:20:21.000Z,30
2018-03-28T14:21:21.000Z,30
2018-03-28T14:22:21.000Z,30
2018-03-28T14:23:21.000Z,30
2018-03-28T14:24:21.000Z,30
2018-03-28T14:25:21.000Z,30
2018-03-28T14:27:21.000Z,29
2018-03-28T14:28:21.000Z,30
2018-03-28T14:29:21.000Z,29
2018-03-28T14:30:21.000Z,30
2018-03-28T14:32:21.000Z,29
2018-03-28T14:33:21.000Z,30
2018-03-28T14:34:21.000Z,29
2018-03-28T14:35:21.000Z,30
2018-03-28T14:36:21.000Z,30
2018-03-28T14:37:21.000Z,30
2018-03-28T14:38:21.000Z,30
2018-03-28T14:39:21.000Z,30
2018-03-28T14:41:21.000Z,30
2018-03-28T14:42:21.000Z,30
2018-03-28T14:43:21.000Z,30
2018-03-28T14:44:21.000Z,30
2018-03-28T14:45:21.000Z,30
2018-03-28T14:46:21.000Z,30
2018-03-28T14:47:21.000Z,30
2018-03-28T14:48:21.000Z,30
2018-03-28T14:49:21.000Z,30
2018-03-28T14:50:21.000Z,30
2018-03-28T14:51:21.000Z,30
2018-03-28T14:52:21.000Z,30
2018-03-28T14:53:21.000Z,30
2018-03-28T14:54:21.000Z,30
2018-03-28T14:55:21.000Z,30
2018-03-28T14:57:21.000Z,29
2018-03-28T14:59:21.000Z,29
2018-03-28T15:00:21.000Z,29
2018-03-28T15:01:21.000Z,30
2018-03-28T15:03:21.000Z,29
2018-03-28T15:04:21.000Z,29
2018-03-28T15:05:21.000Z,30
2018-03-28T15:06:21.000Z,29
2018-03-28T15:07:21.000Z,29
2018-03-28T15:08:21.000Z,29
2018-03-28T15:10:21.000Z,29
2018-03-28T15:12:21.000Z,29
2018-03-28T15:13:21.000Z,29
2018-03-28T15:14:21.000Z,30
2018-03-28T15:15:21.000Z,29
2018-03-28T15:16:21.000Z,29
2018-03-28T15:17:21.000Z,29
2018-03-28T15:18:21.000Z,29
2018-03-28T15:20:21.000Z,29
2018-03-28T15:21:21.000Z,29
2018-03-28T15:22:21.000Z,29
2018-03-28T15:23:21.000Z,29
2018-03-28T15:24:21.000Z,29
2018-03-28T15:26:21.000Z,29
2018-03-28T15:27:21.000Z,29
2018-03-28T15:28:21.000Z,29
2018-03-28T15:29:21.000Z,29
2018-03-28T15:30:21.000Z,29
2018-03-28T15:31:21.000Z,29
2018-03-28T15:32:21.000Z,29
2018-03-28T15:33:21.000Z,29
2018-03-28T15:34:21.000Z,29
2018-03-28T15:35:21.000Z,29
2018-03-28T15:37:21.000Z,29
2018-03-28T15:38:21.000Z,29
2018-03-28T15:39:21.000Z,29
2018-03-28T15:40:21.000Z,29
2018-03-28T15:41:21.000Z,29
2018-03-28T15:42:21.000Z,29
2018-03-28T15:43:21.000Z,29
2018-03-28T15:44:21.000Z,29
2018-03-28T15:45:21.000Z,29
2018-03-28T15:46:21.000Z,29
2018-03-28T15:47:21.000Z,29
2018-03-28T15:48:21.000Z,29
2018-03-28T15:50:21.000Z,29
2018-03-28T15:51:21.000Z,29
2018-03-28T15:52:21.000Z,29